Airfield :
LOGIN :

Register | Disclaimer

   EN    FR    IT 

 










Legend :    VFR   Marginal VFR   IFR   Intensive IFR   Very Intensive IFR
Visi :
Ceiling :
>= 8 km
>= 3000ft
5 to 8 km
1000 to 3000 ft
1500m to 5 km
500 to 1000 ft
800 to 1500m
200 to 500 ft
< 800m
< 200 ft
Symbols :   Thunderstorms  Fog  Heavy snow  Heavy precipitations  Wind > 20 kt
SIGMETs :     Misc.  Thunderstorms  Icing  Turbulence  Mountain Waves  Volcanic Ashes






- Airport Elevation : 1079 ft


ETIK - Illesheim Air Base

CURRENT METAR :
  • 282156Z AUTO 23010KT 9999 FEW018 01/01 A2965 RMK AO2 SLP055 T00120012 $

EXPIRED METARs :
  • 282056Z AUTO 24015G20KT 9999 FEW021 SCT030 BKN038 02/02 A2966 RMK AO2 SLP055 T00160016 50018 $
  • 281956Z AUTO 25015G23KT 9999 FEW038 01/01 A2967 RMK AO2 SLP060 T00140014 $

TAF AMD TAF ETIK
Valid from the 28 at 18:00 until the 29 at 21:00 UTC


281815Z 2818/2921 25010G15KT 8000 -RA BKN020 OVC030 620206 540003 QNH2948INS
BECMG 2820/2821 25010G15KT 9999 NSW BKN015 OVC020 620156 540005 QNH2953INS
BECMG 2901/2902 23010G15KT 8000 -RA BKN015 OVC020 620156 510003 QNH2958INS
BECMG 2905/2906 27015G25KT 8000 -RASN BKN015 OVC020 620156 540005 QNH2960INS TX03/2818Z TN00/2904Z



MET'MAP, your aeronautical weather chart ! - Copyright ORBIFLY December 2007 - Disclaimer

ORBIFLY MET'MAP TEAM :

Programming & Development : Alexandra Zaïnal
Concept & original design : Baudouin d'Aumeries
Assistance for programming : Marc-Olivier Méhu
Technical & hardware support : Manuel Goepfert

Contact : metmap@orbifly.com




SOURCES & CREDITS :

   NOAA